ADDS METAR Data INFO
IDs: Format: Raw Decoded Include TAF

Data at: 2313 UTC 15 Jul 2018

KCKM 152255Z AUTO 26007KT 10SM CLR 32/24 A2994 RMK A01
KCKM 152235Z AUTO 26007KT 10SM CLR 32/25 A2994 RMK A01
KCKM 152215Z AUTO 25007KT 10SM CLR 34/27 A2994 RMK A01
KCKM 152155Z AUTO 21005KT 10SM CLR 35/27 A2995 RMK A01
KCKM 152135Z AUTO 22006KT CLR 35/27 A2995 RMK A01
KCKM 152115Z AUTO 25005KT 10SM CLR 34/26 A2996 RMK A01
KCKM 152055Z AUTO 23005KT 10SM CLR 34/26 A2996 RMK A01
KCKM 152035Z AUTO 25006KT 10SM CLR 34/26 A2996 RMK A01
KCKM 152015Z AUTO 25006KT 10SM CLR 35/26 A2996 RMK A01
KCKM 151955Z AUTO 26005KT 10SM CLR 35/26 A2996 RMK A01
KCKM 151935Z AUTO 24005G11KT 10SM FEW042 FEW070 35/27 A2996 RMK A01
KCKM 151915Z AUTO 23007KT 10SM FEW040 35/27 A2997 RMK A01
KCKM 151855Z AUTO 23007KT 10SM FEW040 35/27 A2998 RMK A01
KCKM 151835Z AUTO 22005KT 10SM CLR 35/27 A2999 RMK A01
KCKM 151815Z AUTO 21004KT 10SM CLR 35/27 A3000 RMK A01
KCKM 151755Z AUTO 00000KT 10SM CLR 34/27 A3002 RMK A01
KCKM 151735Z AUTO 00000KT 10SM CLR 34/28 A3003 RMK A01
KCKM 151715Z AUTO 00000KT 10SM CLR 34/27 A3003 RMK A01
KCKM 151655Z AUTO 26007KT 10SM CLR 33/27 A3003 RMK A01
KCKM 151635Z AUTO 26005KT 10SM CLR 33/27 A3003 RMK A01
KCKM 151615Z AUTO VRB04KT 10SM CLR 33/27 A3003 RMK A01
KCKM 151555Z AUTO 26004KT 10SM CLR 32/27 A3003 RMK A01
KCKM 151535Z AUTO 25003KT 10SM CLR 32/27 A3003 RMK A01
KCKM 151515Z AUTO 28004KT 10SM CLR 32/28 A3003 RMK A01
KCKM 151455Z AUTO 26003KT 10SM CLR 31/28 A3003 RMK A01
KCKM 151435Z AUTO 24005KT 10SM CLR 30/28 A3003 RMK A01
KCKM 151415Z AUTO 23006KT 10SM CLR 30/28 A3003 RMK A01
KCKM 151355Z AUTO 20004KT 10SM CLR 29/29 A3004 RMK A01
KCKM 151335Z AUTO 00000KT 10SM CLR 29/29 A3004 RMK A01
KCKM 151315Z AUTO 00000KT 10SM CLR 28/28 A3003 RMK A01
KCKM 151255Z AUTO 00000KT 10SM CLR 28/28 A3003 RMK A01
KCKM 151235Z AUTO 18003KT 8SM CLR 27/27 A3003 RMK A01
KCKM 151215Z AUTO 00000KT 8SM CLR 26/26 A3003 RMK A01
KCKM 151155Z AUTO 00000KT 9SM CLR 26/26 A3003 RMK A01
KCKM 151135Z AUTO 00000KT 7SM CLR 26/26 A3002 RMK A01
KCKM 151115Z AUTO 00000KT 7SM CLR 26/26 A3002 RMK A01
KCKM 151055Z AUTO 00000KT 9SM CLR 26/26 A3001 RMK A01
KCKM 151035Z AUTO 00000KT 9SM CLR 26/26 A3001 RMK A01
KCKM 151015Z AUTO 00000KT 10SM CLR 26/26 A3001 RMK A01
KCKM 150955Z AUTO 00000KT 9SM CLR 26/26 A3001 RMK A01
KCKM 150935Z AUTO 00000KT 10SM CLR 26/26 A3001 RMK A01
KCKM 150915Z AUTO 00000KT 10SM CLR 26/26 A3001 RMK A01
KCKM 150855Z AUTO 00000KT 10SM CLR 26/26 A3001 RMK A01
KCKM 150835Z AUTO 00000KT 10SM CLR 26/26 A3001 RMK A01
KCKM 150815Z AUTO 00000KT 10SM CLR 26/26 A3000 RMK A01
KCKM 150755Z AUTO 00000KT 10SM CLR 26/26 A3000 RMK A01
KCKM 150735Z AUTO 00000KT 10SM CLR 26/26 A3000 RMK A01
KCKM 150715Z AUTO 00000KT 10SM CLR 26/26 A3000 RMK A01
KCKM 150655Z AUTO 00000KT 10SM CLR 26/26 A3000 RMK A01
KCKM 150635Z AUTO 00000KT 10SM CLR 26/26 A3000 RMK A01
KCKM 150615Z AUTO 00000KT 10SM 27/27 A3001 RMK A01
KCKM 150555Z AUTO 00000KT 10SM 27/27 A3001 RMK A01
KCKM 150535Z AUTO 00000KT 10SM CLR 27/27 A3001 RMK A01
KCKM 150515Z AUTO 16004KT 10SM CLR 27/27 A3002 RMK A01
KCKM 150455Z AUTO 00000KT 10SM CLR 27/27 A3002 RMK A01
KCKM 150435Z AUTO 00000KT 10SM CLR 27/27 A3003 RMK A01
KCKM 150415Z AUTO 00000KT 10SM CLR 27/27 A3003 RMK A01
KCKM 150355Z AUTO 00000KT 10SM CLR 27/27 A3002 RMK A01
KCKM 150335Z AUTO 00000KT 10SM CLR 27/27 A3002 RMK A01
KCKM 150315Z AUTO 17004KT 10SM CLR 27/27 A3001 RMK A01
KCKM 150255Z AUTO 00000KT 10SM CLR 28/28 A3001 RMK A01
KCKM 150235Z AUTO 00000KT 10SM CLR 28/28 A3001 RMK A01
KCKM 150215Z AUTO 00000KT 10SM CLR 28/28 A3000 RMK A01
KCKM 150155Z AUTO 00000KT 10SM CLR 28/28 A3000 RMK A01
KCKM 150135Z AUTO 00000KT 10SM CLR 28/28 A3000 RMK A01
KCKM 150115Z AUTO 00000KT 10SM CLR 29/28 A2999 RMK A01
KCKM 150055Z AUTO 00000KT 10SM CLR 29/27 A2998 RMK A01
KCKM 150035Z AUTO 00000KT 10SM CLR 30/27 A2998 RMK A01
KCKM 150015Z AUTO 00000KT 10SM CLR 30/27 A2998 RMK A01
KCKM 142355Z AUTO 00000KT 10SM CLR 30/27 A2998 RMK A01
KCKM 142335Z AUTO 00000KT 10SM CLR 30/27 A2999 RMK A01
KCKM 142315Z AUTO 14004KT 10SM CLR 31/27 A3000 RMK A01
KCKM 142255Z AUTO 13004KT 10SM CLR 32/26 A3001 RMK A01
KCKM 142235Z AUTO 23005KT 10SM FEW038 SCT070 BKN095 33/27 A2999 RMK A01
KCKM 142215Z AUTO 25007KT 10SM FEW039 SCT048 BKN070 33/27 A3000 RMK A01
KCKM 142155Z AUTO 24007KT 10SM CLR 34/28 A3000 RMK A01
KCKM 142135Z AUTO 25004KT 10SM CLR 35/27 A2999 RMK A01
KCKM 142115Z AUTO 24005KT 10SM CLR 35/26 A3001 RMK A01
KCKM 142055Z AUTO 22004KT 10SM CLR 35/26 A3002 RMK A01
KCKM 142035Z AUTO 18005KT 10SM CLR 35/26 A3001 RMK A01
KCKM 142015Z AUTO 20004KT 10SM CLR 35/27 A3002 RMK A01
KCKM 141955Z AUTO 24004KT 10SM CLR 35/27 A3002 RMK A01
KCKM 141935Z AUTO VRB05KT 10SM CLR 35/27 A3003 RMK A01
KCKM 141915Z AUTO VRB03KT 10SM CLR 35/27 A3005 RMK A01
KCKM 141855Z AUTO 00000KT 10SM CLR 35/27 A3006 RMK A01
KCKM 141835Z AUTO 00000KT 10SM CLR 34/27 A3006 RMK A01
KCKM 141815Z AUTO 20004KT 10SM CLR 34/26 A3007 RMK A01
KCKM 141755Z AUTO 23005KT 10SM CLR 34/27 A3007 RMK A01
KCKM 141735Z AUTO 00000KT 10SM CLR 34/27 A3008 RMK A01
KCKM 141715Z AUTO VRB03KT 10SM CLR 34/27 A3008 RMK A01
KCKM 141655Z AUTO 21005KT 10SM CLR 34/27 A3008 RMK A01
KCKM 141635Z AUTO 20003KT CLR 33/27 A3009 RMK A01
KCKM 141615Z AUTO 00000KT 10SM CLR 33/27 A3009 RMK A01
KCKM 141555Z AUTO 00000KT 10SM CLR 32/28 A3009 RMK A01
KCKM 141535Z AUTO 00000KT 10SM CLR 32/27 A3009 RMK A01
KCKM 141515Z AUTO 21004KT 10SM CLR 31/27 A3009 RMK A01
KCKM 141455Z AUTO VRB04KT 10SM CLR 31/28 A3008 RMK A01
KCKM 141435Z AUTO 23004KT 10SM CLR 30/28 A3009 RMK A01
KCKM 141415Z AUTO 22005KT 10SM CLR 30/28 A3009 RMK A01
KCKM 141355Z AUTO 22005KT 10SM CLR 29/28 A3009 RMK A01
KCKM 141335Z AUTO 24004KT 10SM CLR 28/28 A3008 RMK A01
KCKM 141315Z AUTO 00000KT 10SM CLR 28/28 A3009 RMK A01
KCKM 141255Z AUTO 00000KT 10SM CLR 27/27 A3008 RMK A01
KCKM 141235Z AUTO 00000KT 10SM CLR 26/26 A3008 RMK A01
KCKM 141215Z AUTO 00000KT 10SM CLR 26/26 A3007 RMK A01
KCKM 141155Z AUTO 20003KT 10SM CLR 25/25 A3007 RMK A01
KCKM 141135Z AUTO 18005KT 9SM CLR 25/25 A3007 RMK A01
KCKM 141115Z AUTO 00000KT 9SM CLR 25/25 A3008 RMK A01